createdAt,value
2022-09-04T00:01:18.683Z,18.70
2022-09-04T00:03:53.164Z,18.80
2022-09-04T00:06:23.350Z,18.80
2022-09-04T00:09:02.607Z,18.80
2022-09-04T00:11:36.004Z,18.70
2022-09-04T00:14:05.308Z,18.80
2022-09-04T00:16:44.105Z,18.60
2022-09-04T00:19:20.810Z,18.50
2022-09-04T00:21:53.252Z,18.50
2022-09-04T00:24:24.866Z,18.60
2022-09-04T00:26:52.941Z,18.60
2022-09-04T00:29:38.254Z,18.60
2022-09-04T00:32:08.037Z,18.60
2022-09-04T00:34:46.072Z,18.60
2022-09-04T00:37:16.633Z,18.70
2022-09-04T00:39:50.672Z,18.70
2022-09-04T00:42:36.139Z,18.70
2022-09-04T00:45:14.629Z,18.70
2022-09-04T00:47:48.628Z,18.70
2022-09-04T00:50:34.023Z,18.60
2022-09-04T00:53:06.861Z,18.60
2022-09-04T00:55:41.066Z,18.60
2022-09-04T00:58:26.564Z,18.60
2022-09-04T01:00:56.016Z,18.50
2022-09-04T01:03:27.439Z,18.50
2022-09-04T01:06:06.606Z,18.50
2022-09-04T01:08:56.314Z,18.40
2022-09-04T01:11:43.407Z,18.40
2022-09-04T01:14:10.869Z,18.30
2022-09-04T01:16:41.574Z,18.30
2022-09-04T01:19:13.432Z,18.30
2022-09-04T01:21:43.143Z,18.20
2022-09-04T01:24:28.482Z,18.10
2022-09-04T01:26:55.136Z,18.00
2022-09-04T01:29:28.427Z,18.10
2022-09-04T01:32:13.894Z,18.10
2022-09-04T01:34:48.411Z,18.10
2022-09-04T01:37:30.194Z,18.10
2022-09-04T01:40:10.107Z,18.20
2022-09-04T01:42:46.212Z,18.20
2022-09-04T01:45:13.487Z,18.20
2022-09-04T01:47:46.968Z,18.20
2022-09-04T01:50:16.512Z,18.30
2022-09-04T01:52:53.645Z,18.30
2022-09-04T01:55:20.347Z,18.40
2022-09-04T01:57:55.133Z,18.50
2022-09-04T02:04:12.561Z,18.60
2022-09-04T02:06:54.658Z,18.70
2022-09-04T02:09:27.223Z,18.80
2022-09-04T02:11:59.608Z,18.80
2022-09-04T02:14:27.459Z,18.90
2022-09-04T02:17:11.497Z,18.90
2022-09-04T02:19:57.683Z,18.90
2022-09-04T02:22:28.647Z,19.00
2022-09-04T02:24:55.303Z,19.00
2022-09-04T02:27:28.166Z,18.90
2022-09-04T02:29:57.936Z,18.90
2022-09-04T02:32:47.648Z,18.90
2022-09-04T02:35:14.346Z,18.90
2022-09-04T02:38:00.228Z,18.90
2022-09-04T02:40:31.612Z,18.90
2022-09-04T02:43:04.330Z,18.90
2022-09-04T02:45:31.003Z,18.90
2022-09-04T02:48:04.042Z,18.80
2022-09-04T02:50:56.177Z,18.70
2022-09-04T02:53:34.843Z,18.70
2022-09-04T02:56:09.412Z,18.60
2022-09-04T02:58:44.138Z,18.60
2022-09-04T03:01:23.026Z,18.60
2022-09-04T03:04:08.371Z,18.60
2022-09-04T03:06:41.010Z,18.60
2022-09-04T03:09:10.424Z,18.60
2022-09-04T03:11:48.882Z,18.60
2022-09-04T03:14:34.320Z,18.60
2022-09-04T03:17:01.188Z,18.60
2022-09-04T03:19:45.882Z,18.60
2022-09-04T03:22:12.578Z,18.60
2022-09-04T03:24:57.988Z,18.50
2022-09-04T03:27:25.339Z,18.50
2022-09-04T03:30:03.855Z,18.50
2022-09-04T03:32:36.288Z,18.50
2022-09-04T03:35:07.475Z,18.40
2022-09-04T03:37:43.462Z,18.40
2022-09-04T03:40:33.851Z,18.30
2022-09-04T03:43:15.898Z,18.20
2022-09-04T03:45:48.571Z,18.20
2022-09-04T03:48:21.497Z,18.10
2022-09-04T03:51:01.888Z,18.10
2022-09-04T03:53:41.414Z,18.00
2022-09-04T03:56:27.011Z,18.00
2022-09-04T03:59:29.498Z,18.00
2022-09-04T04:01:58.930Z,17.90
2022-09-04T04:04:25.592Z,17.80
2022-09-04T04:06:58.045Z,17.70
2022-09-04T04:09:33.276Z,17.60
2022-09-04T04:12:13.175Z,17.60
2022-09-04T04:14:59.342Z,17.50
2022-09-04T04:17:38.147Z,17.40
2022-09-04T04:20:24.491Z,17.40
2022-09-04T04:23:10.094Z,17.30
2022-09-04T04:25:52.614Z,17.30
2022-09-04T04:28:48.394Z,17.20
2022-09-04T04:31:20.669Z,17.20
2022-09-04T04:33:54.429Z,17.30
2022-09-04T04:36:26.891Z,17.20
2022-09-04T04:39:02.534Z,17.20
2022-09-04T04:42:05.717Z,17.20
2022-09-04T04:45:06.387Z,17.20
2022-09-04T04:47:36.641Z,17.10
2022-09-04T04:50:08.180Z,17.10
2022-09-04T04:52:49.142Z,17.10
2022-09-04T04:55:22.919Z,17.00
2022-09-04T04:57:49.611Z,16.90
2022-09-04T05:00:22.843Z,16.90
2022-09-04T05:03:04.425Z,16.90
2022-09-04T05:05:46.611Z,16.80
2022-09-04T05:08:22.615Z,16.80
2022-09-04T05:10:53.705Z,16.80
2022-09-04T05:13:39.275Z,16.80
2022-09-04T05:16:18.925Z,16.80
2022-09-04T05:19:09.006Z,16.80
2022-09-04T05:22:00.009Z,16.80
2022-09-04T05:24:26.743Z,16.70
2022-09-04T05:26:57.818Z,16.70
2022-09-04T05:29:44.794Z,16.70
2022-09-04T05:32:30.412Z,16.80
2022-09-04T05:35:02.183Z,16.80
2022-09-04T05:37:35.068Z,16.80
2022-09-04T05:40:14.084Z,16.80
2022-09-04T05:42:49.738Z,16.90
2022-09-04T05:45:35.132Z,16.80
2022-09-04T05:48:18.010Z,16.90
2022-09-04T05:50:50.800Z,17.00
2022-09-04T05:53:28.724Z,17.00
2022-09-04T05:56:01.313Z,17.10
2022-09-04T05:58:34.325Z,17.10
2022-09-04T06:01:01.082Z,17.20
2022-09-04T06:03:46.174Z,17.30
2022-09-04T06:06:20.572Z,17.30
2022-09-04T06:09:13.215Z,17.40
2022-09-04T06:11:47.626Z,17.50
2022-09-04T06:14:37.343Z,17.50
2022-09-04T06:17:07.037Z,17.60
2022-09-04T06:19:53.065Z,17.60
2022-09-04T06:22:37.827Z,17.70
2022-09-04T06:25:04.953Z,17.80
2022-09-04T06:27:45.397Z,17.90
2022-09-04T06:30:20.052Z,17.90
2022-09-04T06:32:53.280Z,18.00
2022-09-04T06:35:26.962Z,18.00
2022-09-04T06:38:12.291Z,18.10
2022-09-04T06:40:48.273Z,18.20
2022-09-04T06:43:19.596Z,18.30
2022-09-04T06:45:56.733Z,18.50
2022-09-04T06:48:37.659Z,18.60
2022-09-04T06:51:28.531Z,18.60
2022-09-04T06:54:04.558Z,18.80
2022-09-04T06:56:34.419Z,18.90
2022-09-04T06:59:30.455Z,18.90
2022-09-04T07:02:11.427Z,19.10
2022-09-04T07:04:56.594Z,19.20
2022-09-04T07:07:32.015Z,19.30
2022-09-04T07:10:18.942Z,19.40
2022-09-04T07:12:57.720Z,19.50
2022-09-04T07:15:27.448Z,19.60
2022-09-04T07:17:55.708Z,19.80
2022-09-04T07:20:52.870Z,19.90
2022-09-04T07:23:27.644Z,20.10
2022-09-04T07:26:07.014Z,20.20
2022-09-04T07:28:52.272Z,20.40
2022-09-04T07:31:20.482Z,20.60
2022-09-04T07:33:53.421Z,20.70
2022-09-04T07:36:20.237Z,20.90
2022-09-04T07:39:05.795Z,21.00
2022-09-04T07:41:41.980Z,21.20
2022-09-04T07:44:29.282Z,21.40
2022-09-04T07:47:12.618Z,21.60
2022-09-04T07:49:42.106Z,21.80
2022-09-04T07:52:27.600Z,21.90
2022-09-04T07:55:18.344Z,22.10
2022-09-04T07:58:03.953Z,22.30
2022-09-04T08:00:58.455Z,22.50
2022-09-04T08:03:53.937Z,22.70
2022-09-04T08:06:24.465Z,22.90
2022-09-04T08:09:17.353Z,22.90
2022-09-04T08:11:49.966Z,23.10
2022-09-04T08:14:21.221Z,23.30
2022-09-04T08:17:00.181Z,23.40
2022-09-04T08:19:47.144Z,23.50
2022-09-04T08:22:28.162Z,23.60
2022-09-04T08:25:09.666Z,23.80
2022-09-04T08:28:17.607Z,23.90
2022-09-04T08:31:01.855Z,24.10
2022-09-04T08:33:40.062Z,24.20
2022-09-04T08:36:48.321Z,24.30
2022-09-04T08:39:54.916Z,24.40
2022-09-04T08:42:40.517Z,24.60
2022-09-04T08:45:24.482Z,24.70
2022-09-04T08:48:03.529Z,24.80
2022-09-04T08:50:51.295Z,24.70
2022-09-04T08:53:28.205Z,24.60
2022-09-04T08:56:09.348Z,24.70
2022-09-04T08:58:56.411Z,24.70
2022-09-04T09:01:55.430Z,24.80
2022-09-04T09:05:02.849Z,24.90
2022-09-04T09:07:59.821Z,25.00
2022-09-04T09:10:35.271Z,24.90
2022-09-04T09:13:37.510Z,24.70
2022-09-04T09:16:10.191Z,25.00
2022-09-04T09:18:49.334Z,25.20
2022-09-04T09:21:38.592Z,25.40
2022-09-04T09:24:32.998Z,25.40
2022-09-04T09:27:11.828Z,25.50
2022-09-04T09:30:12.870Z,25.70
2022-09-04T09:33:13.382Z,25.80
2022-09-04T09:36:44.441Z,25.90
2022-09-04T09:39:28.182Z,25.90
2022-09-04T09:42:19.062Z,26.10
2022-09-04T09:44:51.832Z,26.30
2022-09-04T09:47:21.639Z,26.50
2022-09-04T09:49:57.532Z,26.40
2022-09-04T09:52:28.576Z,26.10
2022-09-04T09:55:14.083Z,26.20
2022-09-04T09:57:46.932Z,26.30
2022-09-04T10:00:17.557Z,26.40
2022-09-04T10:03:04.304Z,26.40
2022-09-04T10:05:49.707Z,26.50
2022-09-04T10:08:17.853Z,26.60
2022-09-04T10:11:19.188Z,26.70
2022-09-04T10:13:57.866Z,26.50
2022-09-04T10:16:24.655Z,26.70
2022-09-04T10:19:04.892Z,26.80
2022-09-04T10:21:50.929Z,27.00
2022-09-04T10:24:36.527Z,26.90
2022-09-04T10:27:09.252Z,27.00
2022-09-04T10:29:36.413Z,27.40
2022-09-04T10:32:08.998Z,27.30
2022-09-04T10:34:43.106Z,27.30
2022-09-04T10:37:20.111Z,27.50
2022-09-04T10:40:11.556Z,27.70
2022-09-04T10:42:59.642Z,27.30
2022-09-04T10:45:46.403Z,27.30
2022-09-04T10:48:28.602Z,27.20
2022-09-04T10:50:58.418Z,27.40
2022-09-04T10:53:52.813Z,27.40
2022-09-04T10:56:49.381Z,27.20
2022-09-04T10:59:47.408Z,27.30
2022-09-04T11:02:49.446Z,27.20
2022-09-04T11:05:50.179Z,27.60
2022-09-04T11:08:36.218Z,28.00
2022-09-04T11:11:29.206Z,28.20
2022-09-04T11:14:20.512Z,28.30
2022-09-04T11:17:05.193Z,28.30
2022-09-04T11:20:04.595Z,28.40
2022-09-04T11:23:08.980Z,28.40
2022-09-04T11:26:14.950Z,27.70
2022-09-04T11:28:51.956Z,28.00
2022-09-04T11:31:48.565Z,28.30
2022-09-04T11:34:42.965Z,28.30
2022-09-04T11:37:57.878Z,28.00
2022-09-04T11:40:52.355Z,28.00
2022-09-04T11:43:37.367Z,28.00
2022-09-04T11:46:22.831Z,28.00
2022-09-04T11:48:59.193Z,27.30
2022-09-04T11:51:37.224Z,27.00
2022-09-04T11:54:23.523Z,26.80
2022-09-04T11:57:09.112Z,26.60
2022-09-04T11:59:38.890Z,26.60
2022-09-04T12:02:24.371Z,26.70
2022-09-04T12:04:56.959Z,26.70
2022-09-04T12:07:43.512Z,26.80
2022-09-04T12:10:23.758Z,26.80
2022-09-04T12:12:53.330Z,26.90
2022-09-04T12:15:22.259Z,26.90
2022-09-04T12:17:50.131Z,26.90
2022-09-04T12:20:24.098Z,26.90
2022-09-04T12:23:00.425Z,26.90
2022-09-04T12:25:27.124Z,26.80
2022-09-04T12:27:53.825Z,26.90
2022-09-04T12:30:25.389Z,26.60
2022-09-04T12:33:10.255Z,26.40
2022-09-04T12:35:43.194Z,26.30
2022-09-04T12:38:28.728Z,26.40
2022-09-04T12:40:58.324Z,26.70
2022-09-04T12:43:33.749Z,27.10
2022-09-04T12:46:22.293Z,27.20
2022-09-04T12:48:58.017Z,27.30
2022-09-04T12:51:26.808Z,27.40
2022-09-04T12:54:14.449Z,27.40
2022-09-04T12:56:49.322Z,27.40
2022-09-04T12:59:31.313Z,27.20
2022-09-04T13:02:08.378Z,27.20
2022-09-04T13:04:44.171Z,27.40
2022-09-04T13:07:34.995Z,27.30
2022-09-04T13:10:43.033Z,27.30
2022-09-04T13:13:35.157Z,27.40
2022-09-04T13:16:19.188Z,27.40
2022-09-04T13:18:58.707Z,27.40
2022-09-04T13:22:19.997Z,27.40
2022-09-04T13:25:33.036Z,27.30
2022-09-04T13:28:17.189Z,27.20
2022-09-04T13:31:03.531Z,27.20
2022-09-04T13:33:51.356Z,27.30
2022-09-04T13:37:04.289Z,27.30
2022-09-04T13:39:31.174Z,27.30
2022-09-04T13:42:20.707Z,27.40
2022-09-04T13:45:17.420Z,27.40
2022-09-04T13:48:16.122Z,27.40
2022-09-04T13:50:42.999Z,27.40
2022-09-04T13:53:25.080Z,27.20
2022-09-04T13:55:59.837Z,27.30
2022-09-04T13:58:44.262Z,27.20
2022-09-04T14:01:17.100Z,27.20
2022-09-04T14:04:11.438Z,27.20
2022-09-04T14:06:39.758Z,27.20
2022-09-04T14:09:06.798Z,27.20
2022-09-04T14:12:01.213Z,27.30
2022-09-04T14:14:59.764Z,27.60
2022-09-04T14:17:50.488Z,27.90
2022-09-04T14:20:43.445Z,28.10
2022-09-04T14:23:36.284Z,28.10
2022-09-04T14:26:31.995Z,28.20
2022-09-04T14:29:25.994Z,28.20
2022-09-04T14:32:02.752Z,28.20
2022-09-04T14:35:02.857Z,28.20
2022-09-04T14:37:48.420Z,28.30
2022-09-04T14:40:27.537Z,28.20
2022-09-04T14:43:24.294Z,28.30
2022-09-04T14:46:19.204Z,28.50
2022-09-04T14:48:51.142Z,28.70
2022-09-04T14:51:40.880Z,28.80
2022-09-04T14:54:15.797Z,28.80
2022-09-04T14:56:55.621Z,28.80
2022-09-04T14:59:41.370Z,28.80
2022-09-04T15:02:16.521Z,28.80
2022-09-04T15:05:07.514Z,28.90
2022-09-04T15:07:55.884Z,28.90
2022-09-04T15:10:35.179Z,29.00
2022-09-04T15:13:20.774Z,29.10
2022-09-04T15:15:52.851Z,29.10
2022-09-04T15:18:41.458Z,29.10
2022-09-04T15:21:21.121Z,29.20
2022-09-04T15:24:14.482Z,29.60
2022-09-04T15:27:01.513Z,29.70
2022-09-04T15:29:40.927Z,29.90
2022-09-04T15:32:13.852Z,30.10
2022-09-04T15:34:41.799Z,30.30
2022-09-04T15:37:22.443Z,30.50
2022-09-04T15:40:10.953Z,30.40
2022-09-04T15:42:43.910Z,30.30
2022-09-04T15:45:26.070Z,30.10
2022-09-04T15:48:27.602Z,29.80
2022-09-04T15:50:57.758Z,29.50
2022-09-04T15:53:30.458Z,29.40
2022-09-04T15:56:17.395Z,29.20
2022-09-04T15:58:53.274Z,29.10
2022-09-04T16:01:40.483Z,29.00
2022-09-04T16:04:33.345Z,29.00
2022-09-04T16:07:43.257Z,28.90
2022-09-04T16:10:25.893Z,28.80
2022-09-04T16:13:08.131Z,29.00
2022-09-04T16:15:40.677Z,29.30
2022-09-04T16:18:18.779Z,29.70
2022-09-04T16:20:55.727Z,30.00
2022-09-04T16:23:31.717Z,30.10
2022-09-04T16:25:59.890Z,29.90
2022-09-04T16:28:34.710Z,29.90
2022-09-04T16:31:11.187Z,29.90
2022-09-04T16:33:44.175Z,29.80
2022-09-04T16:36:44.125Z,29.60
2022-09-04T16:39:28.966Z,29.70
2022-09-04T16:42:10.323Z,29.80
2022-09-04T16:44:45.532Z,29.40
2022-09-04T16:47:19.503Z,29.30
2022-09-04T16:49:58.647Z,29.20
2022-09-04T16:52:28.094Z,29.00
2022-09-04T16:54:55.876Z,28.90
2022-09-04T16:57:38.664Z,28.90
2022-09-04T17:00:10.267Z,28.80
2022-09-04T17:02:47.000Z,28.70
2022-09-04T17:05:17.462Z,28.60
2022-09-04T17:08:04.434Z,28.40
2022-09-04T17:10:43.183Z,28.30
2022-09-04T17:13:22.101Z,28.20
2022-09-04T17:15:54.848Z,28.10
2022-09-04T17:18:26.095Z,27.80
2022-09-04T17:26:16.729Z,27.70
2022-09-04T17:29:18.568Z,27.40
2022-09-04T17:29:19.056Z,27.50
2022-09-04T17:30:04.518Z,27.10
2022-09-04T17:35:23.726Z,27.00
2022-09-04T17:40:42.887Z,26.90
2022-09-04T17:40:46.824Z,26.80
2022-09-04T17:42:00.778Z,26.70
2022-09-04T17:44:35.919Z,26.50
2022-09-04T17:47:29.037Z,26.40
2022-09-04T17:49:56.079Z,26.30
2022-09-04T17:52:26.849Z,26.10
2022-09-04T17:55:20.894Z,26.10
2022-09-04T17:58:00.938Z,26.00
2022-09-04T18:00:48.044Z,25.80
2022-09-04T18:03:29.912Z,25.70
2022-09-04T18:06:01.383Z,25.50
2022-09-04T18:08:38.143Z,25.40
2022-09-04T18:11:12.503Z,25.20
2022-09-04T18:13:43.444Z,25.10
2022-09-04T18:16:10.159Z,25.10
2022-09-04T18:18:43.059Z,24.90
2022-09-04T18:21:18.587Z,24.90
2022-09-04T18:23:51.867Z,24.70
2022-09-04T18:26:25.154Z,24.50
2022-09-04T18:29:00.737Z,24.40
2022-09-04T18:37:17.802Z,24.20
2022-09-04T18:37:24.103Z,24.30
2022-09-04T18:37:46.054Z,24.00
2022-09-04T18:42:03.887Z,23.90
2022-09-04T18:50:04.995Z,23.90
2022-09-04T18:50:40.776Z,23.70
2022-09-04T18:50:44.415Z,23.60
2022-09-04T18:51:53.133Z,23.50
2022-09-04T18:54:29.576Z,23.20
2022-09-04T18:57:01.132Z,22.90
2022-09-04T18:59:37.547Z,22.70
2022-09-04T19:02:14.689Z,22.60
2022-09-04T19:04:45.397Z,22.70
2022-09-04T19:07:31.882Z,22.70
2022-09-04T19:10:11.759Z,22.70
2022-09-04T19:12:50.587Z,22.70
2022-09-04T19:15:17.270Z,22.70
2022-09-04T19:17:46.962Z,22.60
2022-09-04T19:20:18.224Z,22.60
2022-09-04T19:22:48.823Z,22.60
2022-09-04T19:25:21.223Z,22.50
2022-09-04T19:27:50.845Z,22.50
2022-09-04T19:30:23.932Z,22.40
2022-09-04T19:32:52.925Z,22.40
2022-09-04T19:35:22.273Z,22.30
2022-09-04T19:43:46.680Z,22.20
2022-09-04T19:45:59.935Z,22.20
2022-09-04T19:46:01.662Z,21.90
2022-09-04T19:46:56.350Z,21.80
2022-09-04T19:53:17.377Z,21.70
2022-09-04T19:53:31.646Z,21.60
2022-09-04T19:55:35.507Z,21.60
2022-09-04T19:58:05.391Z,21.40
2022-09-04T20:00:44.027Z,21.40
2022-09-04T20:03:29.469Z,21.40
2022-09-04T20:06:23.645Z,21.30
2022-09-04T20:08:54.488Z,21.30
2022-09-04T20:11:34.926Z,21.20
2022-09-04T20:14:14.064Z,21.20
2022-09-04T20:17:08.956Z,21.10
2022-09-04T20:19:45.113Z,21.10
2022-09-04T20:22:27.251Z,21.10
2022-09-04T20:25:12.392Z,21.00
2022-09-04T20:27:46.177Z,21.00
2022-09-04T20:30:18.233Z,21.00
2022-09-04T20:33:02.409Z,20.90
2022-09-04T20:35:44.784Z,20.90
2022-09-04T20:38:23.222Z,20.90
2022-09-04T20:40:53.864Z,20.90
2022-09-04T20:43:26.814Z,20.90
2022-09-04T20:50:34.706Z,20.60
2022-09-04T20:52:49.569Z,20.50
2022-09-04T20:52:51.600Z,20.50
2022-09-04T20:55:03.876Z,20.40
2022-09-04T21:00:18.777Z,20.40
2022-09-04T21:03:21.628Z,20.30
2022-09-04T21:06:07.702Z,20.20
2022-09-04T21:08:34.532Z,20.20
2022-09-04T21:11:03.919Z,20.20
2022-09-04T21:13:53.623Z,20.10
2022-09-04T21:16:35.748Z,20.10
2022-09-04T21:19:29.278Z,20.10
2022-09-04T21:22:32.304Z,20.10
2022-09-04T21:25:25.735Z,20.10
2022-09-04T21:28:11.007Z,20.10
2022-09-04T21:30:50.395Z,20.00
2022-09-04T21:33:31.326Z,20.00
2022-09-04T21:36:26.793Z,20.00
2022-09-04T21:39:19.779Z,20.00
2022-09-04T21:41:55.750Z,20.00
2022-09-04T21:44:22.589Z,20.00
2022-09-04T21:46:52.718Z,19.90
2022-09-04T21:49:26.525Z,19.90
2022-09-04T21:52:02.282Z,19.90
2022-09-04T21:56:00.738Z,19.90
2022-09-04T22:02:30.816Z,19.90
2022-09-04T22:02:42.615Z,19.90
2022-09-04T22:03:49.763Z,19.80
2022-09-04T22:07:13.018Z,19.80
2022-09-04T22:13:26.814Z,19.70
2022-09-04T22:13:41.411Z,19.60
2022-09-04T22:15:35.931Z,19.50
2022-09-04T22:18:21.373Z,19.40
2022-09-04T22:21:03.231Z,19.40
2022-09-04T22:23:36.175Z,19.30
2022-09-04T22:26:23.314Z,19.30
2022-09-04T22:28:53.938Z,19.30
2022-09-04T22:31:29.913Z,19.30
2022-09-04T22:34:16.495Z,19.30
2022-09-04T22:36:46.060Z,19.30
2022-09-04T22:39:31.701Z,19.30
2022-09-04T22:42:20.550Z,19.30
2022-09-04T22:44:56.490Z,19.30
2022-09-04T22:47:35.943Z,19.40
2022-09-04T22:50:10.935Z,19.40
2022-09-04T22:52:53.039Z,19.40
2022-09-04T22:55:39.618Z,19.40
2022-09-04T22:58:26.443Z,19.40
2022-09-04T23:01:02.379Z,19.40
2022-09-04T23:03:35.067Z,19.40
2022-09-04T23:08:21.561Z,19.30
2022-09-04T23:13:42.308Z,19.30
2022-09-04T23:13:44.740Z,19.30
2022-09-04T23:15:09.239Z,19.20
2022-09-04T23:17:53.230Z,19.20
2022-09-04T23:26:37.701Z,19.10
2022-09-04T23:26:57.565Z,19.10
2022-09-04T23:27:02.883Z,19.10
2022-09-04T23:29:41.191Z,19.00
2022-09-04T23:32:13.343Z,19.00
2022-09-04T23:35:15.416Z,19.00
2022-09-04T23:38:14.667Z,18.90
2022-09-04T23:40:51.209Z,18.90
2022-09-04T23:43:56.443Z,18.90
2022-09-04T23:46:25.728Z,18.90
2022-09-04T23:49:11.098Z,18.90
2022-09-04T23:51:52.854Z,18.90
2022-09-04T23:54:38.164Z,18.90
2022-09-04T23:57:26.534Z,18.90
